Time;durP1;ratioP1;P1;durP2;ratioP2;P2;SDS_P1;SDS_P2;PMS_P1;PMS_P2;Temp;Humidity;BMP_temperature;BMP_pressure;BME280_temperature;BME280_humidity;BME280_pressure;Samples;Min_cycle;Max_cycle;Signal;HPM_P1;HPM_P2
2023/12/17 00:01:49;;;;;;;3.90;1.98;;;7.70;99.90;;;;;;5003461;28;20197;-80
2023/12/17 00:04:16;;;;;;;8.13;4.82;;;7.80;99.90;;;;;;5003982;28;20241;-79
2023/12/17 00:06:43;;;;;;;3.00;2.80;;;7.80;99.90;;;;;;5003058;28;20189;-80
2023/12/17 00:09:09;;;;;;;1.45;1.35;;;7.80;99.90;;;;;;5003931;28;20204;-82
2023/12/17 00:11:40;;;;;;;4.93;4.53;;;7.80;99.90;;;;;;5003500;28;20199;-81
2023/12/17 00:14:11;;;;;;;5.68;4.10;;;7.70;99.90;;;;;;5002988;28;20220;-80
2023/12/17 00:16:38;;;;;;;2.15;1.95;;;7.70;99.90;;;;;;5002734;28;20263;-81
2023/12/17 00:19:05;;;;;;;1.92;1.75;;;7.70;99.90;;;;;;5018701;28;20193;-80
2023/12/17 00:21:33;;;;;;;2.92;0.95;;;7.70;99.90;;;;;;5023022;28;20197;-80
2023/12/17 00:24:00;;;;;;;2.13;0.85;;;7.80;99.90;;;;;;5022947;28;20236;-80
2023/12/17 00:26:27;;;;;;;3.53;2.55;;;7.70;99.90;;;;;;5022247;28;20204;-81
2023/12/17 00:28:54;;;;;;;4.35;2.50;;;7.70;99.90;;;;;;5023204;28;20192;-80
2023/12/17 00:31:22;;;;;;;4.05;0.70;;;7.70;99.90;;;;;;5022637;28;20608;-81
2023/12/17 00:33:49;;;;;;;4.03;3.47;;;7.70;99.90;;;;;;5022377;28;20786;-81
2023/12/17 00:36:15;;;;;;;3.05;2.85;;;7.70;99.90;;;;;;5021625;28;20196;-80
2023/12/17 00:38:42;;;;;;;8.48;2.95;;;7.70;99.90;;;;;;5018959;28;20217;-81
2023/12/17 00:41:09;;;;;;;8.30;3.65;;;7.60;99.90;;;;;;5001772;28;20284;-80
2023/12/17 00:43:36;;;;;;;16.67;7.80;;;7.60;99.90;;;;;;5002165;28;20221;-80
2023/12/17 00:46:03;;;;;;;8.30;5.95;;;7.60;99.90;;;;;;5001134;28;20193;-79
2023/12/17 00:48:31;;;;;;;5.63;4.65;;;7.60;99.90;;;;;;5001855;28;20208;-80
2023/12/17 00:50:57;;;;;;;4.80;4.40;;;7.60;99.90;;;;;;5002617;28;20572;-81
2023/12/17 00:53:24;;;;;;;8.93;5.63;;;7.60;99.90;;;;;;5001075;28;20220;-80
2023/12/17 00:55:51;;;;;;;8.98;5.20;;;7.60;99.90;;;;;;5001036;28;20220;-80
2023/12/17 00:58:18;;;;;;;2.38;1.83;;;7.60;99.90;;;;;;5001322;28;20280;-80
2023/12/17 01:00:45;;;;;;;8.27;4.30;;;7.60;99.90;;;;;;5001970;28;20198;-80
2023/12/17 01:03:12;;;;;;;5.47;2.47;;;7.60;99.90;;;;;;5002095;28;20764;-81
2023/12/17 01:05:40;;;;;;;6.30;3.92;;;7.60;99.90;;;;;;5000955;28;20223;-80
2023/12/17 01:08:06;;;;;;;2.78;1.80;;;7.60;99.90;;;;;;5001362;28;20185;-81
2023/12/17 01:10:33;;;;;;;0.90;0.60;;;7.70;99.90;;;;;;5001423;28;20193;-80
2023/12/17 01:13:00;;;;;;;4.38;1.30;;;7.70;99.90;;;;;;5001309;28;20216;-81
2023/12/17 01:15:27;;;;;;;1.92;1.80;;;7.70;99.90;;;;;;5001356;28;20197;-80
2023/12/17 01:17:53;;;;;;;2.33;1.27;;;7.70;99.90;;;;;;5001076;28;20267;-81
2023/12/17 01:20:20;;;;;;;4.32;3.83;;;7.70;99.90;;;;;;5001723;28;20207;-79
2023/12/17 01:22:48;;;;;;;19.00;6.90;;;7.70;99.90;;;;;;5000848;28;20224;-81
2023/12/17 01:25:15;;;;;;;2.78;2.58;;;7.70;99.90;;;;;;5001638;28;20202;-82
2023/12/17 01:27:42;;;;;;;9.25;5.10;;;7.70;99.90;;;;;;5001532;28;20197;-81
2023/12/17 01:30:09;;;;;;;2.70;2.50;;;7.70;99.90;;;;;;5002288;28;20200;-80
2023/12/17 01:32:36;;;;;;;4.10;2.53;;;7.70;99.90;;;;;;5001086;28;20193;-81
2023/12/17 01:35:04;;;;;;;4.78;3.70;;;7.70;99.90;;;;;;5000625;28;20197;-80
2023/12/17 01:37:31;;;;;;;4.00;1.90;;;7.70;99.90;;;;;;5001804;28;20217;-80
2023/12/17 01:39:59;;;;;;;1.77;1.67;;;7.70;99.90;;;;;;5001664;28;20194;-81
2023/12/17 01:42:26;;;;;;;9.00;1.58;;;7.70;99.90;;;;;;5002246;28;20201;-78
2023/12/17 01:44:53;;;;;;;7.97;4.60;;;7.70;99.90;;;;;;5002099;28;20199;-81
2023/12/17 01:47:19;;;;;;;3.05;2.80;;;7.70;99.90;;;;;;5002379;28;20196;-80
2023/12/17 01:49:47;;;;;;;3.03;2.92;;;7.70;99.90;;;;;;5002064;28;20201;-80
2023/12/17 01:52:14;;;;;;;7.10;3.55;;;7.70;99.90;;;;;;5002299;28;20204;-81
2023/12/17 01:54:41;;;;;;;2.97;2.78;;;7.70;99.90;;;;;;5002439;28;20217;-77
2023/12/17 01:57:09;;;;;;;2.47;2.38;;;7.70;99.90;;;;;;5002813;28;20219;-80
2023/12/17 01:59:36;;;;;;;3.78;3.45;;;7.70;99.90;;;;;;5003481;28;20193;-77
2023/12/17 02:02:03;;;;;;;5.90;3.95;;;7.70;99.90;;;;;;5009115;28;20196;-80
2023/12/17 02:04:30;;;;;;;9.63;4.35;;;7.70;99.90;;;;;;5023194;28;20279;-76
2023/12/17 02:06:57;;;;;;;4.05;3.55;;;7.70;99.90;;;;;;5023638;28;20199;-81
2023/12/17 02:09:24;;;;;;;0.93;0.93;;;7.70;99.90;;;;;;5023583;28;20223;-81
2023/12/17 02:11:51;;;;;;;6.13;3.90;;;7.70;99.90;;;;;;5022167;28;20284;-81
2023/12/17 02:14:19;;;;;;;2.90;2.15;;;7.70;99.90;;;;;;5022651;28;20222;-80
2023/12/17 02:16:45;;;;;;;2.58;1.30;;;7.70;99.90;;;;;;5022680;28;20287;-80
2023/12/17 02:19:12;;;;;;;4.40;2.78;;;7.70;99.90;;;;;;5025085;28;20212;-81
2023/12/17 02:21:39;;;;;;;0.70;0.70;;;7.70;99.90;;;;;;5028971;28;20247;-77
2023/12/17 02:24:07;;;;;;;7.97;4.60;;;7.70;99.90;;;;;;5018074;28;20251;-81
2023/12/17 02:26:34;;;;;;;11.57;5.82;;;7.70;99.90;;;;;;5028648;28;20188;-80
2023/12/17 02:29:01;;;;;;;0.75;0.75;;;7.70;99.90;;;;;;5033426;28;20169;-79
2023/12/17 02:31:27;;;;;;;4.65;2.55;;;7.70;99.90;;;;;;5031249;28;20215;-80
2023/12/17 02:33:54;;;;;;;10.07;1.95;;;7.70;99.90;;;;;;5031632;28;20215;-82
2023/12/17 02:36:21;;;;;;;5.80;4.53;;;7.70;99.90;;;;;;5032652;28;20288;-79
2023/12/17 02:38:48;;;;;;;4.30;3.28;;;7.70;99.90;;;;;;5024619;28;20244;-79
2023/12/17 02:41:16;;;;;;;7.78;6.72;;;7.70;99.90;;;;;;5022565;28;20198;-80
2023/12/17 02:43:42;;;;;;;1.73;1.63;;;7.60;99.90;;;;;;5023301;28;20301;-81
2023/12/17 02:46:09;;;;;;;3.20;1.83;;;7.60;99.90;;;;;;5023324;28;20256;-81
2023/12/17 02:48:36;;;;;;;3.75;3.42;;;7.60;99.90;;;;;;5032616;28;20197;-78
2023/12/17 02:51:03;;;;;;;2.97;2.60;;;7.60;99.90;;;;;;5028976;28;20256;-81
2023/12/17 02:53:29;;;;;;;1.08;1.08;;;7.60;99.90;;;;;;5013486;28;20281;-79
2023/12/17 02:55:56;;;;;;;6.82;4.97;;;7.60;99.90;;;;;;5013334;28;20217;-81
2023/12/17 02:58:24;;;;;;;7.32;6.15;;;7.60;99.90;;;;;;5028938;28;20197;-82
2023/12/17 03:00:51;;;;;;;11.70;4.95;;;7.60;99.90;;;;;;5033909;28;20231;-80
2023/12/17 03:03:18;;;;;;;5.07;2.88;;;7.60;99.90;;;;;;5034731;28;20272;-81
2023/12/17 03:05:44;;;;;;;1.77;1.70;;;7.60;99.90;;;;;;5030283;28;20265;-80
2023/12/17 03:08:11;;;;;;;6.72;6.03;;;7.60;99.90;;;;;;5028290;28;20217;-82
2023/12/17 03:10:42;;;;;;;5.18;4.78;;;7.60;99.90;;;;;;5011053;28;20269;-78
2023/12/17 03:13:09;;;;;;;2.63;2.15;;;7.50;99.90;;;;;;5002446;28;20217;-80
2023/12/17 03:15:37;;;;;;;4.10;3.47;;;7.50;99.90;;;;;;5002495;28;20198;-79
2023/12/17 03:18:04;;;;;;;4.78;2.28;;;7.60;99.90;;;;;;5006282;28;20211;-80
2023/12/17 03:20:31;;;;;;;5.72;3.88;;;7.60;99.90;;;;;;5006474;28;20571;-80
2023/12/17 03:22:58;;;;;;;3.75;2.88;;;7.60;99.90;;;;;;5006403;28;20247;-79
2023/12/17 03:25:25;;;;;;;8.02;4.70;;;7.60;99.90;;;;;;5005988;28;20197;-81
2023/12/17 03:27:51;;;;;;;1.45;1.33;;;7.60;99.90;;;;;;5006951;28;20284;-80
2023/12/17 03:30:18;;;;;;;3.13;1.83;;;7.60;99.90;;;;;;5021377;28;20204;-81
2023/12/17 03:32:46;;;;;;;1.55;1.55;;;7.60;99.90;;;;;;5025405;28;20202;-81
2023/12/17 03:35:13;;;;;;;2.20;2.05;;;7.60;99.90;;;;;;5026224;28;20264;-81
2023/12/17 03:37:40;;;;;;;3.88;3.53;;;7.60;99.90;;;;;;5025813;28;20271;-81
2023/12/17 03:40:08;;;;;;;3.30;2.83;;;7.60;99.90;;;;;;5026175;28;20256;-79
2023/12/17 03:42:35;;;;;;;17.27;6.00;;;7.60;99.90;;;;;;5025821;28;20197;-80
2023/12/17 03:45:02;;;;;;;19.15;4.47;;;7.60;99.90;;;;;;4997885;28;20529;-80
2023/12/17 03:47:29;;;;;;;10.95;2.75;;;7.60;99.90;;;;;;5005642;28;20208;-79
2023/12/17 03:49:57;;;;;;;3.60;2.38;;;7.60;99.90;;;;;;5005490;28;20645;-80
2023/12/17 03:52:23;;;;;;;8.88;5.97;;;7.50;99.90;;;;;;5006530;28;20201;-81
2023/12/17 03:54:50;;;;;;;11.18;4.05;;;7.60;99.90;;;;;;5005240;28;20213;-81
2023/12/17 03:57:17;;;;;;;1.83;1.70;;;7.60;99.90;;;;;;5006134;28;20284;-82
2023/12/17 03:59:43;;;;;;;5.53;4.85;;;7.60;99.90;;;;;;5006858;28;20217;-80
2023/12/17 04:02:10;;;;;;;8.52;3.75;;;7.50;99.90;;;;;;5025498;28;20218;-81
2023/12/17 04:04:37;;;;;;;10.57;2.60;;;7.60;99.90;;;;;;5024797;28;20223;-81
2023/12/17 04:07:05;;;;;;;8.05;6.03;;;7.60;99.90;;;;;;4996124;28;20207;-79
2023/12/17 04:09:32;;;;;;;3.40;1.88;;;7.50;99.90;;;;;;5004495;28;20203;-80
2023/12/17 04:11:59;;;;;;;1.52;1.52;;;7.50;99.90;;;;;;5004755;28;20197;-81
2023/12/17 04:14:26;;;;;;;6.65;3.70;;;7.50;99.90;;;;;;5003351;28;20216;-80
2023/12/17 04:16:52;;;;;;;4.43;3.95;;;7.50;99.90;;;;;;5004399;28;20665;-79
2023/12/17 04:19:19;;;;;;;2.80;2.15;;;7.50;99.90;;;;;;5004185;28;20217;-81
2023/12/17 04:21:46;;;;;;;5.53;4.32;;;7.50;99.90;;;;;;5004248;28;20724;-81
2023/12/17 04:24:14;;;;;;;10.70;6.30;;;7.50;99.90;;;;;;5003877;28;20304;-80
2023/12/17 04:26:41;;;;;;;9.85;4.97;;;7.50;99.90;;;;;;5003222;28;20201;-79
2023/12/17 04:29:08;;;;;;;2.97;2.67;;;7.50;99.90;;;;;;5003128;28;20209;-81
2023/12/17 04:31:34;;;;;;;6.18;3.00;;;7.50;99.90;;;;;;5005001;28;20201;-81
2023/12/17 04:34:01;;;;;;;4.35;2.85;;;7.50;99.90;;;;;;5003380;28;20315;-80
2023/12/17 04:36:28;;;;;;;6.15;3.00;;;7.50;99.90;;;;;;5002780;28;20201;-80
2023/12/17 04:38:55;;;;;;;3.90;2.63;;;7.50;99.90;;;;;;5003665;28;20217;-80
2023/12/17 04:41:24;;;;;;;5.18;3.05;;;7.50;99.90;;;;;;5003668;28;20300;-81
2023/12/17 04:43:51;;;;;;;9.40;5.93;;;7.50;99.90;;;;;;5003816;28;20293;-80
2023/12/17 04:46:18;;;;;;;4.70;3.47;;;7.50;99.90;;;;;;5002759;28;20201;-80
2023/12/17 04:48:44;;;;;;;8.18;3.63;;;7.50;99.90;;;;;;5011148;28;20200;-81
2023/12/17 04:51:11;;;;;;;6.95;3.55;;;7.50;99.90;;;;;;5023075;28;20202;-79
2023/12/17 04:53:38;;;;;;;13.70;3.85;;;7.50;99.90;;;;;;5022491;28;20227;-79
2023/12/17 04:56:05;;;;;;;2.78;1.83;;;7.50;99.90;;;;;;5021969;28;20192;-81
2023/12/17 04:58:33;;;;;;;9.13;4.55;;;7.50;99.90;;;;;;5022837;28;20217;-80
2023/12/17 05:01:00;;;;;;;7.43;5.70;;;7.50;99.90;;;;;;5021609;28;20240;-80
2023/12/17 05:03:28;;;;;;;6.57;4.53;;;7.50;99.90;;;;;;5022540;28;20220;-81
2023/12/17 05:05:55;;;;;;;4.75;3.08;;;7.40;99.90;;;;;;5021400;28;20292;-78
2023/12/17 05:08:21;;;;;;;3.05;2.80;;;7.40;99.90;;;;;;5022570;28;20200;-80
2023/12/17 05:10:48;;;;;;;5.10;4.05;;;7.40;99.90;;;;;;5004972;28;20212;-78
2023/12/17 05:13:15;;;;;;;6.68;3.63;;;7.40;99.90;;;;;;5002161;28;20231;-79
2023/12/17 05:15:43;;;;;;;7.60;4.28;;;7.40;99.90;;;;;;5000980;28;20284;-81
2023/12/17 05:18:10;;;;;;;5.35;4.90;;;7.40;99.90;;;;;;4993361;28;20739;-79
2023/12/17 05:20:38;;;;;;;2.72;2.55;;;7.40;99.90;;;;;;5001358;28;20197;-80
2023/12/17 05:23:05;;;;;;;6.55;4.35;;;7.40;99.90;;;;;;5000936;28;20708;-80
2023/12/17 05:25:32;;;;;;;1.30;1.30;;;7.40;99.90;;;;;;5001267;28;20579;-79
2023/12/17 05:27:58;;;;;;;3.67;2.53;;;7.40;99.90;;;;;;5001492;28;20200;-81
2023/12/17 05:30:25;;;;;;;5.18;4.13;;;7.40;99.90;;;;;;5002028;28;20201;-80
2023/12/17 05:32:53;;;;;;;8.02;4.00;;;7.40;99.90;;;;;;5001099;28;20225;-79
2023/12/17 05:35:20;;;;;;;3.75;3.45;;;7.40;99.90;;;;;;5000528;28;20288;-80
2023/12/17 05:37:47;;;;;;;6.80;6.18;;;7.30;99.90;;;;;;5001810;28;20193;-79
2023/12/17 05:40:14;;;;;;;7.05;3.47;;;7.30;99.90;;;;;;5001116;28;20213;-80
2023/12/17 05:42:41;;;;;;;4.47;3.97;;;7.30;99.90;;;;;;5000240;28;20205;-79
2023/12/17 05:45:08;;;;;;;9.10;3.20;;;7.30;99.90;;;;;;5000066;28;20208;-81
2023/12/17 05:47:35;;;;;;;3.28;2.47;;;7.20;99.90;;;;;;5000688;28;20260;-78
2023/12/17 05:50:04;;;;;;;2.63;2.03;;;7.20;99.90;;;;;;5000726;28;20190;-79
2023/12/17 05:52:31;;;;;;;5.10;2.53;;;7.30;99.90;;;;;;5000433;28;20197;-80
2023/12/17 05:54:57;;;;;;;3.67;2.83;;;7.30;99.90;;;;;;5000096;28;20204;-81
2023/12/17 05:57:24;;;;;;;1.42;1.25;;;7.30;99.90;;;;;;4999993;28;20203;-80
2023/12/17 05:59:51;;;;;;;2.70;1.90;;;7.30;99.90;;;;;;4999376;28;20225;-79
2023/12/17 06:02:18;;;;;;;11.02;6.82;;;7.20;99.90;;;;;;4999996;28;20204;-81
2023/12/17 06:04:45;;;;;;;5.18;3.10;;;7.20;99.90;;;;;;4998244;28;20221;-79
2023/12/17 06:07:13;;;;;;;6.63;4.28;;;7.20;99.90;;;;;;4998769;28;20196;-80
2023/12/17 06:09:40;;;;;;;2.85;2.65;;;7.10;99.90;;;;;;4998758;28;20199;-77
2023/12/17 06:12:07;;;;;;;16.90;2.38;;;7.20;99.90;;;;;;4998381;28;20196;-80
2023/12/17 06:14:34;;;;;;;5.47;3.28;;;7.10;99.90;;;;;;4999193;28;20212;-80
2023/12/17 06:17:01;;;;;;;6.28;3.70;;;7.10;99.90;;;;;;4997066;28;20652;-80
2023/12/17 06:19:28;;;;;;;5.90;5.40;;;7.10;99.90;;;;;;4998277;28;20217;-79
2023/12/17 06:21:55;;;;;;;7.10;5.82;;;7.10;99.90;;;;;;4997782;28;20213;-80
2023/12/17 06:24:23;;;;;;;4.70;3.33;;;7.10;99.90;;;;;;4997193;28;20223;-79
2023/12/17 06:26:50;;;;;;;4.75;4.10;;;7.10;99.90;;;;;;4996986;28;20201;-80
2023/12/17 06:29:17;;;;;;;4.18;3.63;;;7.10;99.90;;;;;;5001324;28;20196;-81
2023/12/17 06:31:44;;;;;;;5.70;3.25;;;7.10;99.90;;;;;;5016964;28;20200;-79
2023/12/17 06:34:11;;;;;;;8.95;5.90;;;7.10;99.90;;;;;;5016141;28;20721;-77
2023/12/17 06:36:38;;;;;;;12.27;6.18;;;7.10;99.90;;;;;;5015975;28;20224;-79
2023/12/17 06:39:09;;;;;;;4.53;4.10;;;7.10;99.90;;;;;;5015781;28;20220;-79
2023/12/17 06:41:37;;;;;;;5.93;3.90;;;7.10;99.90;;;;;;5015698;28;20327;-79
2023/12/17 06:44:04;;;;;;;6.15;4.78;;;7.10;99.90;;;;;;5014887;28;20227;-79
2023/12/17 06:46:30;;;;;;;5.55;1.48;;;7.10;99.90;;;;;;5014980;28;20222;-79
2023/12/17 06:48:57;;;;;;;11.90;3.85;;;7.10;99.90;;;;;;5014806;28;20551;-79
2023/12/17 06:51:24;;;;;;;1.15;1.08;;;7.10;99.90;;;;;;5014855;28;20203;-79
2023/12/17 06:53:51;;;;;;;9.52;6.40;;;7.10;99.90;;;;;;5009502;28;20604;-79
2023/12/17 06:56:17;;;;;;;1.63;1.55;;;7.00;99.90;;;;;;5005965;28;20208;-80
2023/12/17 06:58:46;;;;;;;1.75;1.65;;;7.00;99.90;;;;;;5009476;28;20209;-80
2023/12/17 07:01:13;;;;;;;1.35;1.35;;;7.10;99.90;;;;;;5007347;28;20193;-79
2023/12/17 07:03:39;;;;;;;0.88;0.88;;;7.10;99.90;;;;;;5004208;28;20209;-79
2023/12/17 07:06:11;;;;;;;6.30;2.22;;;7.00;99.90;;;;;;4999290;28;20197;-80
2023/12/17 07:08:38;;;;;;;3.85;3.50;;;7.10;99.90;;;;;;4997936;28;20936;-77
2023/12/17 07:11:05;;;;;;;7.43;5.60;;;7.00;99.90;;;;;;4998409;28;20197;-79
2023/12/17 07:13:32;;;;;;;8.77;1.77;;;7.00;99.90;;;;;;4998053;28;20223;-79
2023/12/17 07:16:00;;;;;;;1.48;1.38;;;7.00;99.90;;;;;;5014396;28;20674;-79
2023/12/17 07:18:26;;;;;;;8.57;2.72;;;7.00;99.90;;;;;;5018134;28;20199;-80
2023/12/17 07:20:53;;;;;;;4.07;3.50;;;7.00;99.90;;;;;;5021334;28;20652;-80
2023/12/17 07:23:22;;;;;;;5.88;5.35;;;7.00;99.90;;;;;;5027003;28;20221;-82
2023/12/17 07:25:48;;;;;;;2.08;0.85;;;7.00;99.90;;;;;;5019575;28;20204;-80
2023/12/17 07:28:15;;;;;;;9.50;4.55;;;7.10;99.90;;;;;;5009779;28;20198;-80
2023/12/17 07:30:42;;;;;;;2.90;1.83;;;7.00;99.90;;;;;;5018267;28;20188;-82
2023/12/17 07:33:10;;;;;;;4.85;4.32;;;7.00;99.90;;;;;;5009376;28;20212;-80
2023/12/17 07:35:37;;;;;;;9.18;4.60;;;7.00;99.90;;;;;;5017134;28;20193;-81
2023/12/17 07:38:04;;;;;;;4.70;3.25;;;7.00;99.90;;;;;;5017759;28;20200;-80
2023/12/17 07:40:30;;;;;;;2.10;1.50;;;7.00;99.90;;;;;;5016607;28;20216;-79
2023/12/17 07:42:57;;;;;;;4.57;4.22;;;7.00;99.90;;;;;;5016505;28;20212;-81
2023/12/17 07:45:24;;;;;;;8.65;5.00;;;7.00;99.90;;;;;;5016201;28;20279;-80
2023/12/17 07:47:51;;;;;;;10.50;6.07;;;7.00;99.90;;;;;;5016410;28;20192;-80
2023/12/17 07:50:19;;;;;;;12.25;2.58;;;6.90;99.90;;;;;;5015961;28;20192;-80
2023/12/17 07:52:46;;;;;;;5.45;2.65;;;6.90;99.90;;;;;;5015865;28;20652;-80
2023/12/17 07:55:13;;;;;;;7.00;5.32;;;6.90;99.90;;;;;;5005541;28;20662;-80
2023/12/17 07:57:40;;;;;;;5.15;2.92;;;6.90;99.90;;;;;;4995670;28;20193;-80
2023/12/17 08:00:08;;;;;;;1.40;1.15;;;6.90;99.90;;;;;;4995716;28;20209;-80
2023/12/17 08:02:35;;;;;;;2.17;2.08;;;6.90;99.90;;;;;;4994932;28;20236;-82
2023/12/17 08:05:02;;;;;;;3.72;3.00;;;6.90;99.90;;;;;;4994858;28;20201;-80
2023/12/17 08:07:30;;;;;;;2.13;1.95;;;6.90;99.90;;;;;;4995413;28;20200;-80
2023/12/17 08:09:57;;;;;;;7.88;5.07;;;6.90;99.90;;;;;;4995995;28;20659;-80
2023/12/17 08:12:24;;;;;;;1.20;1.10;;;6.90;99.90;;;;;;5002805;28;20260;-81
2023/12/17 08:14:50;;;;;;;1.73;1.20;;;6.90;99.90;;;;;;5016730;28;20247;-82
2023/12/17 08:17:17;;;;;;;4.28;2.28;;;6.80;99.90;;;;;;5021853;28;20192;-82
2023/12/17 08:19:44;;;;;;;5.28;3.22;;;6.80;99.90;;;;;;5022129;28;20208;-81
2023/12/17 08:22:11;;;;;;;3.35;2.95;;;6.90;99.90;;;;;;5021992;28;20189;-79
2023/12/17 08:24:39;;;;;;;4.32;2.45;;;6.80;99.90;;;;;;5021338;28;20220;-80
2023/12/17 08:27:06;;;;;;;2.20;2.00;;;6.80;99.90;;;;;;5020351;28;20200;-79
2023/12/17 08:29:33;;;;;;;6.55;1.65;;;6.80;99.90;;;;;;5008152;28;20201;-80
2023/12/17 08:32:00;;;;;;;1.08;0.90;;;6.80;99.90;;;;;;4998396;28;20267;-79
2023/12/17 08:34:29;;;;;;;2.72;2.05;;;6.80;99.90;;;;;;5008464;28;20216;-80
2023/12/17 08:36:55;;;;;;;1.98;1.85;;;6.80;99.90;;;;;;5009284;28;20221;-81
2023/12/17 08:39:23;;;;;;;1.08;0.98;;;6.80;99.90;;;;;;4997460;28;20239;-78
2023/12/17 08:41:51;;;;;;;5.07;1.48;;;6.80;99.90;;;;;;4997070;28;20201;-81
2023/12/17 08:44:22;;;;;;;4.45;4.15;;;6.80;99.90;;;;;;5005648;28;20212;-79
2023/12/17 08:46:49;;;;;;;1.50;0.70;;;6.80;99.90;;;;;;5015987;28;20247;-80
2023/12/17 08:49:16;;;;;;;3.20;1.75;;;6.80;99.90;;;;;;5015598;28;20211;-79
2023/12/17 08:51:42;;;;;;;1.35;1.25;;;6.70;99.90;;;;;;5015794;28;20196;-78
2023/12/17 08:54:10;;;;;;;2.05;1.20;;;6.70;99.90;;;;;;5014786;28;20227;-80
2023/12/17 08:56:37;;;;;;;8.70;1.42;;;6.60;99.90;;;;;;5014952;28;20197;-79
2023/12/17 08:59:05;;;;;;;2.47;2.03;;;6.60;99.90;;;;;;5014322;28;20192;-80
2023/12/17 09:01:32;;;;;;;0.60;0.60;;;6.50;99.90;;;;;;4986434;28;20193;-81
2023/12/17 09:03:59;;;;;;;3.17;2.15;;;6.50;99.90;;;;;;4994159;28;20209;-80
2023/12/17 09:06:26;;;;;;;4.45;2.47;;;6.50;99.90;;;;;;4993660;28;20572;-81
2023/12/17 09:08:53;;;;;;;0.40;0.40;;;6.50;99.90;;;;;;4994022;28;20201;-82
2023/12/17 09:11:19;;;;;;;3.55;2.35;;;6.50;99.90;;;;;;4993624;28;20199;-81
2023/12/17 09:13:46;;;;;;;9.30;2.70;;;6.60;99.90;;;;;;4999137;28;20222;-80
2023/12/17 09:16:14;;;;;;;1.02;1.00;;;6.60;99.90;;;;;;5013240;28;20196;-81
2023/12/17 09:18:41;;;;;;;3.08;2.00;;;6.60;99.90;;;;;;5001305;28;20193;-79
2023/12/17 09:21:08;;;;;;;3.05;2.22;;;6.70;99.90;;;;;;5001855;28;20212;-83
2023/12/17 09:23:35;;;;;;;0.63;0.63;;;6.70;99.90;;;;;;5013536;28;20598;-81
2023/12/17 09:26:02;;;;;;;1.98;1.88;;;6.70;99.90;;;;;;5013768;28;20196;-81
2023/12/17 09:28:28;;;;;;;1.60;1.50;;;6.70;99.90;;;;;;5003275;28;20686;-81
2023/12/17 09:30:55;;;;;;;4.82;2.53;;;6.70;99.90;;;;;;5006864;28;20191;-82
2023/12/17 09:33:23;;;;;;;9.48;5.95;;;6.70;99.90;;;;;;5034072;28;20212;-83
2023/12/17 09:35:50;;;;;;;1.83;1.73;;;6.80;99.90;;;;;;5034599;28;20187;-83
2023/12/17 09:38:17;;;;;;;3.35;2.05;;;6.70;99.90;;;;;;5021970;28;20196;-82
2023/12/17 09:40:46;;;;;;;1.77;1.20;;;6.70;99.90;;;;;;5003545;28;20231;-80
2023/12/17 09:43:15;;;;;;;14.45;2.72;;;6.70;99.90;;;;;;5002271;28;20248;-82
2023/12/17 09:45:43;;;;;;;2.60;2.40;;;6.60;99.90;;;;;;5005826;28;20185;-82
2023/12/17 09:48:10;;;;;;;2.72;1.75;;;6.70;99.90;;;;;;5021982;28;20188;-82
2023/12/17 09:50:38;;;;;;;0.63;0.63;;;6.70;99.90;;;;;;5022006;28;20180;-82
2023/12/17 09:53:05;;;;;;;1.25;1.15;;;6.70;99.90;;;;;;5021252;28;20271;-82
2023/12/17 09:55:32;;;;;;;7.22;2.63;;;6.80;99.90;;;;;;5021271;28;20211;-82
2023/12/17 09:58:03;;;;;;;2.33;2.10;;;6.70;99.90;;;;;;5006084;28;20201;-82
2023/12/17 10:00:30;;;;;;;6.03;5.53;;;6.70;99.90;;;;;;5018530;23;20221;-79
2023/12/17 10:03:03;;;;;;;2.63;2.33;;;6.70;99.90;;;;;;5001813;28;20197;-79
2023/12/17 10:05:30;;;;;;;3.45;3.15;;;6.70;99.90;;;;;;4996122;28;20706;-79
2023/12/17 10:07:59;;;;;;;1.38;0.95;;;6.70;99.90;;;;;;5000390;28;20192;-79
2023/12/17 10:10:26;;;;;;;3.63;3.13;;;6.80;99.90;;;;;;5006896;28;20647;-79
2023/12/17 10:12:54;;;;;;;0.45;0.40;;;6.80;99.90;;;;;;5006839;28;20219;-79
2023/12/17 10:15:21;;;;;;;8.27;4.97;;;6.80;99.90;;;;;;5005863;28;20204;-79
2023/12/17 10:17:48;;;;;;;2.90;2.55;;;6.80;99.90;;;;;;4999493;28;20573;-78
2023/12/17 10:20:19;;;;;;;2.20;2.10;;;6.70;99.90;;;;;;5005124;28;20227;-78
2023/12/17 10:23:03;;;;;;;1.25;1.15;;;6.70;99.90;;;;;;5006532;28;20205;-78
2023/12/17 10:25:30;;;;;;;2.55;1.98;;;6.70;99.90;;;;;;5001653;28;20198;-79
2023/12/17 10:27:58;;;;;;;7.45;4.80;;;6.70;99.90;;;;;;4998874;28;20196;-79
2023/12/17 10:30:29;;;;;;;19.08;8.18;;;6.70;99.90;;;;;;5004555;28;20299;-79
2023/12/17 10:32:56;;;;;;;5.93;2.83;;;6.70;99.90;;;;;;4994301;28;20194;-79
2023/12/17 10:35:24;;;;;;;1.15;1.15;;;6.70;99.90;;;;;;5011478;28;20196;-76
2023/12/17 10:37:54;;;;;;;2.28;2.00;;;6.70;99.90;;;;;;5013316;28;20196;-75
2023/12/17 10:40:22;;;;;;;4.53;1.13;;;6.70;99.90;;;;;;5004500;28;20602;-76
2023/12/17 10:42:50;;;;;;;10.18;4.00;;;6.70;99.90;;;;;;4994239;28;20197;-78
2023/12/17 10:45:19;;;;;;;8.68;5.30;;;6.70;99.90;;;;;;5001455;28;20201;-77
2023/12/17 10:47:48;;;;;;;13.50;5.22;;;6.70;99.90;;;;;;5003121;28;20200;-79
2023/12/17 10:50:16;;;;;;;6.90;4.05;;;6.70;99.90;;;;;;5001379;28;20583;-79
2023/12/17 10:52:45;;;;;;;18.75;5.97;;;6.70;99.90;;;;;;4986091;28;20195;-75
2023/12/17 10:55:11;;;;;;;4.60;3.75;;;6.70;99.90;;;;;;4994480;28;20212;-79
2023/12/17 10:57:42;;;;;;;7.55;4.28;;;6.70;99.90;;;;;;5001448;28;20195;-79
2023/12/17 11:00:10;;;;;;;10.30;6.05;;;6.70;99.90;;;;;;4993079;28;20231;-79
2023/12/17 11:02:38;;;;;;;5.90;5.25;;;6.70;99.90;;;;;;4993271;28;20653;-79
2023/12/17 11:05:06;;;;;;;0.88;0.82;;;6.60;99.90;;;;;;5007579;28;20572;-79
2023/12/17 11:07:33;;;;;;;2.65;1.85;;;6.60;99.90;;;;;;5004692;28;20544;-79
2023/12/17 11:10:01;;;;;;;0.40;0.40;;;6.70;99.90;;;;;;5012511;28;20216;-79
2023/12/17 11:12:28;;;;;;;8.85;3.53;;;6.70;99.90;;;;;;5002540;28;20197;-79
2023/12/17 11:14:59;;;;;;;7.07;4.72;;;6.70;99.90;;;;;;4997372;28;20198;-79
2023/12/17 11:17:27;;;;;;;3.47;2.33;;;6.70;99.90;;;;;;5011132;28;20200;-78
2023/12/17 11:19:56;;;;;;;5.78;5.22;;;6.70;99.90;;;;;;5000549;28;20197;-78
2023/12/17 11:22:23;;;;;;;5.15;4.25;;;6.60;99.90;;;;;;5000733;28;20196;-79
2023/12/17 11:24:50;;;;;;;2.28;2.17;;;6.60;99.90;;;;;;5000058;28;20661;-79
2023/12/17 11:27:22;;;;;;;1.50;1.20;;;6.60;99.90;;;;;;5000414;28;20197;-79
2023/12/17 11:29:49;;;;;;;10.13;5.80;;;6.70;99.90;;;;;;5000734;28;20193;-79
2023/12/17 11:32:18;;;;;;;5.90;5.38;;;6.60;99.90;;;;;;4992268;28;20204;-79
2023/12/17 11:34:48;;;;;;;0.60;0.60;;;6.60;99.90;;;;;;4992126;28;20193;-77
2023/12/17 11:37:18;;;;;;;1.42;1.35;;;6.70;99.90;;;;;;4992857;28;20247;-79
2023/12/17 11:39:46;;;;;;;3.65;3.03;;;6.70;99.90;;;;;;4995386;28;20239;-79
2023/12/17 11:42:13;;;;;;;6.25;3.80;;;6.60;99.90;;;;;;4995495;28;20276;-79
2023/12/17 11:44:43;;;;;;;16.20;3.38;;;6.50;99.90;;;;;;5013996;28;20675;-81
2023/12/17 11:47:11;;;;;;;4.30;2.35;;;6.50;99.90;;;;;;5015111;28;20199;-80
2023/12/17 11:49:39;;;;;;;2.25;2.05;;;6.40;99.90;;;;;;4996421;28;20201;-79
2023/12/17 11:52:13;;;;;;;8.45;5.18;;;6.40;99.90;;;;;;4995286;28;20195;-79
2023/12/17 11:54:41;;;;;;;2.65;2.45;;;6.50;99.90;;;;;;4995340;28;20664;-80
2023/12/17 11:57:19;;;;;;;3.08;2.47;;;6.50;99.90;;;;;;5001633;28;20196;-79
2023/12/17 11:59:46;;;;;;;2.00;1.92;;;6.60;99.90;;;;;;5014759;28;20258;-79
2023/12/17 12:02:16;;;;;;;3.05;2.80;;;6.60;99.90;;;;;;5015034;28;20675;-80
2023/12/17 12:04:45;;;;;;;1.35;1.23;;;6.60;99.90;;;;;;4995688;28;20202;-79
2023/12/17 12:07:15;;;;;;;2.63;2.42;;;6.70;99.90;;;;;;4994814;28;20211;-79
2023/12/17 12:09:42;;;;;;;6.97;3.90;;;6.70;99.90;;;;;;4995073;28;20205;-79
2023/12/17 12:12:19;;;;;;;13.45;4.78;;;6.70;99.90;;;;;;4994779;28;20189;-79
2023/12/17 12:14:48;;;;;;;3.38;3.13;;;6.50;99.90;;;;;;5002536;28;20196;-76
2023/12/17 12:17:38;;;;;;;13.13;6.47;;;6.60;99.90;;;;;;4995192;28;20207;-79
2023/12/17 12:20:07;;;;;;;12.27;5.35;;;6.50;99.90;;;;;;5008625;28;20212;-79
2023/12/17 12:22:34;;;;;;;3.88;2.75;;;6.50;99.90;;;;;;5013044;28;20203;-79
2023/12/17 12:25:01;;;;;;;2.35;2.15;;;6.50;99.90;;;;;;4994533;28;20201;-76
2023/12/17 12:27:28;;;;;;;11.90;5.97;;;6.50;99.90;;;;;;5003070;28;20197;-80
2023/12/17 12:29:56;;;;;;;2.70;2.50;;;6.40;99.90;;;;;;4994927;28;20189;-79
2023/12/17 12:32:27;;;;;;;4.93;2.67;;;6.40;99.90;;;;;;5010704;28;20205;-79
2023/12/17 12:34:55;;;;;;;5.35;4.15;;;6.40;99.90;;;;;;5010443;28;20193;-79
2023/12/17 12:37:36;;;;;;;6.03;3.60;;;6.40;99.90;;;;;;5002809;28;20197;-79
2023/12/17 12:40:04;;;;;;;13.80;2.65;;;6.40;99.90;;;;;;5000737;28;20216;-79
2023/12/17 12:42:31;;;;;;;4.95;3.75;;;6.40;99.90;;;;;;4997791;28;20279;-79
2023/12/17 12:44:58;;;;;;;2.35;2.15;;;6.40;99.90;;;;;;5001442;28;20197;-79
2023/12/17 12:47:25;;;;;;;4.75;1.80;;;6.50;99.90;;;;;;5002713;28;20196;-79
2023/12/17 12:49:52;;;;;;;0.55;0.55;;;6.60;99.90;;;;;;4986309;28;20197;-79
2023/12/17 12:52:21;;;;;;;5.72;3.25;;;6.60;99.90;;;;;;4994404;28;20204;-79
2023/12/17 12:54:49;;;;;;;5.90;5.45;;;6.70;99.90;;;;;;5001822;28;20280;-77
2023/12/17 12:57:17;;;;;;;6.72;1.70;;;6.70;99.90;;;;;;4994449;28;20204;-79